Airfield :
LOGIN :

Register | Disclaimer

   EN    FR    IT 

 










Legend :    VFR   Marginal VFR   IFR   Intensive IFR   Very Intensive IFR
Visi :
Ceiling :
>= 8 km
>= 3000ft
5 to 8 km
1000 to 3000 ft
1500m to 5 km
500 to 1000 ft
800 to 1500m
200 to 500 ft
< 800m
< 200 ft
Symbols :   Thunderstorms  Fog  Heavy snow  Heavy precipitations  Wind > 20 kt
SIGMETs :     Misc.  Thunderstorms  Icing  Turbulence  Mountain Waves  Volcanic Ashes







- Airport Elevation : 74 ft
- IATA code : LRH
- Download approach charts


LFBH - La Rochelle Ile de Ré

CURRENT METAR :
  • 220930Z AUTO 17008KT 150V210 CAVOK 17/09 Q1024 NOSIG

EXPIRED METARs :
  • 220900Z AUTO 18010KT CAVOK 16/09 Q1023 NOSIG
  • 220830Z AUTO 18009KT CAVOK 16/08 Q1024 NOSIG
  • 220800Z AUTO 16008KT CAVOK 15/09 Q1023 NOSIG
  • 220730Z AUTO 16008KT CAVOK 15/09 Q1023 NOSIG
  • 220700Z AUTO 15006KT CAVOK 14/09 Q1024 NOSIG

TAF TAF LFBH
Valid from the 22 at 06:00 until the 23 at 06:00 UTC


220500Z 2206/2306 VRB03KT CAVOK
BECMG 2209/2211 18010KT
BECMG 2214/2216 25012KT
BECMG 2222/2224 OVC005
TEMPO 2300/2306 1500 DZ OVC003
ATIS : +33 5 46 00 13 92
No reported NOTAMs for that airfield.



MET'MAP, your aeronautical weather chart ! - Copyright ORBIFLY December 2007 - Disclaimer

ORBIFLY MET'MAP TEAM :

Programming & Development : Alexandra Zaïnal
Concept & Development : Baudouin d'Aumeries
Co-Development & Prog : Marc-Olivier Méhu
Technical & hardware support : Manuel Goepfert

Contact : metmap@orbifly.com




SOURCES & CREDITS :

   NOAA